JussilaWX:n lähellä olevien METAR-sääasemien säätiedot

EFOU - Oulu/Uleaborg, Finland
Etäisyys meistä: Pohjoiseen 83km
Päivitetty: Wed, 19.06.2024 18:50
Thunderstorm
Thunderstorm
 Tuulee suunnasta SW
Tuuli: SW 9 km/h
Lämpötila: 17°C
Kastepiste: 10°C
Kosteus: 64%
Paine: 999 hPa
Pilviä: Thunderstorm
Näkyvyys: 10 km
2024/06/19 16:50 EFOU 191650Z AUTO 22005KT 170V250 9999 //////CB 17/10 Q0999
EFKI - Kajaani, Finland
Etäisyys meistä: Itään 103km
Päivitetty: Wed, 19.06.2024 18:50
Thunderstorm
Thunderstorm
 Tuulee suunnasta NW
Tuuli: NW 6 km/h
Lämpötila: 14°C
Kastepiste: 10°C
Kosteus: 77%
Paine: 1000 hPa
Pilviä: Thunderstorm
Näkyvyys: 10 km
2024/06/19 16:50 EFKI 191650Z AUTO 32003KT 290V350 9999 //////CB 14/10 Q1000
 
EFKK - Kruunupyy, Finland
Etäisyys meistä: Länsilounaaseen 128km
Päivitetty: Wed, 19.06.2024 18:50
Thunderstorm
Thunderstorm
 Tuulee suunnasta SSW
Tuuli: SSW 20 km/h
Lämpötila: 17°C
Kastepiste: 9°C
Kosteus: 59%
Paine: 999 hPa
Pilviä: Thunderstorm
Näkyvyys: 10 km
Pilven tiedot: Mostly Cloudy 1128 m
2024/06/19 16:50 EFKK 191650Z AUTO 21011KT 170V260 9999 BKN037 //////CB 17/09 Q0999
EFKU - Kuopio (mil/Civ), Finland
Etäisyys meistä: Kaakkoon 170km
Päivitetty: Wed, 19.06.2024 18:50
Thunderstorm
Thunderstorm
 Tuulee suunnasta WSW
Tuuli: WSW 11 km/h
Lämpötila: 18°C
Kastepiste: 11°C
Kosteus: 64%
Paine: 1000 hPa
Pilviä: Thunderstorm
Näkyvyys: 10 km
2024/06/19 16:50 EFKU 191650Z AUTO 24006KT 9999 //////CB 18/11 Q1000
 
EFKE - Kemi, Finland
Etäisyys meistä: Pohjoisluoteeseen 183km
Päivitetty: Wed, 19.06.2024 18:50
Partly Cloudy
Partly Cloudy
 Tuulee suunnasta S
Tuuli: S 19 km/h
Lämpötila: 15°C
Kastepiste: 12°C
Kosteus: 82%
Paine: 998 hPa
Pilviä: Partly Cloudy
Näkyvyys: 10 km
Pilven tiedot: Partly Cloudy 396 m
2024/06/19 16:50 EFKE 191650Z 19010KT 9999 SCT013 15/12 Q0998
EFJY - Jyvaskyla (mil/C, Finland
Etäisyys meistä: Etelään 197km
Päivitetty: Wed, 19.06.2024 18:50
Clear
Clear
 Tuulee suunnasta SW
Tuuli: SW 17 km/h
Lämpötila: 18°C
Kastepiste: 7°C
Kosteus: 49%
Paine: 1001 hPa
Olosuhteet: Clear
Näkyvyys: yli 10 km
2024/06/19 16:50 EFJY 191650Z AUTO 23009KT 190V260 CAVOK 18/07 Q1001
 
EFSI - Seinajoki-Ilmajo, Finland
Etäisyys meistä: Lounaaseen 212km
Päivitetty: Wed, 19.06.2024 18:50
Overcast
Overcast
 Tuulee suunnasta SSW
Tuuli: SSW 17 km/h
Lämpötila: 15°C
Kastepiste: 9°C
Kosteus: 68%
Paine: 1000 hPa
Pilviä: Overcast
Näkyvyys: 10 km
Pilven tiedot: Overcast 1494 m
2024/06/19 16:50 EFSI 191650Z AUTO 21009KT 180V240 9999 OVC049 15/09 Q1000
ESNS - Skelleftea Airpo, Sweden
Etäisyys meistä: Länsiluoteeseen 221km
Päivitetty: Wed, 19.06.2024 18:50
Partly Cloudy
Partly Cloudy
 Tuulee suunnasta WSW
Tuuli: WSW 11 km/h
Lämpötila: 16°C
Kastepiste: 11°C
Kosteus: 72%
Paine: 998 hPa
Pilviä: Partly Cloudy
Näkyvyys: 10 km
Pilven tiedot: Partly Cloudy 1067 m
Partly Cloudy 3048 m
2024/06/19 16:50 ESNS 191650Z 24006KT 9999 SCT035CB SCT100 16/11 Q0998
 
ESPA - Kallax/Lulea (af, Sweden
Etäisyys meistä: Luoteeseen 222km
Päivitetty: Wed, 19.06.2024 18:50
Clear
Clear
 Tuulee suunnasta S
Tuuli: S 13 km/h
Lämpötila: 19°C
Kastepiste: 9°C
Kosteus: 52%
Paine: 996 hPa
Olosuhteet: Clear
Näkyvyys: yli 10 km
2024/06/19 16:50 ESPA 191650Z 19007KT CAVOK 19/09 Q0996
EFVA - Vaasa, Finland
Etäisyys meistä: Länsilounaaseen 225km
Päivitetty: Wed, 19.06.2024 18:50
Mostly Cloudy
Mostly Cloudy
 Tuulee suunnasta SW
Tuuli: SW 17 km/h
Lämpötila: 15°C
Kastepiste: 11°C
Kosteus: 77%
Paine: 1000 hPa
Pilviä: Mostly Cloudy
Näkyvyys: 10 km
Pilven tiedot: Mostly Cloudy 732 m
2024/06/19 16:50 EFVA 191650Z AUTO 23009KT 9999 BKN024 15/11 Q1000
 
EFHA - Halli (fin-Afb), Finland
Etäisyys meistä: Etelään 261km
Päivitetty: Wed, 19.06.2024 18:50
Few Clouds
Few Clouds
 Tuulee suunnasta WSW
Tuuli: WSW 17 km/h
Lämpötila: 17°C
Kastepiste: 7°C
Kosteus: 52%
Paine: 1001 hPa
Pilviä: Few Clouds
Näkyvyys: 10 km
Pilven tiedot: Few Clouds 1311 m
2024/06/19 16:50 EFHA 191650Z AUTO 25009KT 220V280 9999 FEW043 17/07 Q1001
ESNU - Umea Airport, Sweden
Etäisyys meistä: Länteen 261km
Päivitetty: Wed, 19.06.2024 18:50
Mostly Cloudy
Mostly Cloudy
 Tuulee suunnasta W
Tuuli: W 13 km/h
Lämpötila: 15°C
Kastepiste: 12°C
Kosteus: 82%
Paine: 999 hPa
Pilviä: Mostly Cloudy
Näkyvyys: 10 km
Pilven tiedot: Mostly Cloudy 1067 m
2024/06/19 16:50 ESNU 191650Z 28007KT 250V320 9999 BKN035CB 15/12 Q0999
 
EFJO - Joensuu, Finland
Etäisyys meistä: Kaakkoon 263km
Päivitetty: Wed, 19.06.2024 18:50
Clear
Clear
 Tuulee suunnasta SSW
Tuuli: SSW 15 km/h
Lämpötila: 19°C
Kastepiste: 9°C
Kosteus: 52%
Paine: 1001 hPa
Olosuhteet: Clear
Näkyvyys: yli 10 km
2024/06/19 16:50 EFJO 191650Z AUTO 20008KT 160V240 CAVOK 19/09 Q1001
EFKS - Kuusamo, Finland
Etäisyys meistä: Koiliseen 267km
Päivitetty: Wed, 19.06.2024 18:50
Few Clouds
Few Clouds
 Tuulee suunnasta W
Tuuli: W 20 km/h
Lämpötila: 18°C
Kastepiste: 7°C
Kosteus: 49%
Paine: 997 hPa
Pilviä: Few Clouds
Näkyvyys: 10 km
Pilven tiedot: Few Clouds 1402 m
2024/06/19 16:50 EFKS 191650Z AUTO 26011KT 9999 FEW046 18/07 Q0997
 
EFRO - Rovaniemi (civ/M, Finland
Etäisyys meistä: Pohjoiseen 267km
Päivitetty: Wed, 19.06.2024 18:50
Few Clouds
Few Clouds
 Tuulee suunnasta SSW
Tuuli: SSW 20 km/h
Lämpötila: 17°C
Kastepiste: 9°C
Kosteus: 59%
Paine: 997 hPa
Pilviä: Few Clouds
Näkyvyys: 10 km
Pilven tiedot: Few Clouds 945 m
2024/06/19 16:50 EFRO 191650Z AUTO 21011KT 9999 FEW031 17/09 Q0997
EFMI - Mikkeli, Finland
Etäisyys meistä: Eteläkaakkoon 289km
Päivitetty: Wed, 19.06.2024 18:50
Thunderstorm
Thunderstorm
 Tuulee suunnasta S
Tuuli: S 6 km/h
Lämpötila: 15°C
Kastepiste: 13°C
Kosteus: 88%
Paine: 1002 hPa
Pilviä: Thunderstorm
Näkyvyys: 10 km
2024/06/19 16:50 EFMI 191650Z AUTO 18003KT 140V200 9999 //////CB 15/13 Q1002
 
EFSA - Savonlinna (aut), Finland
Etäisyys meistä: Kaakkoon 300km
Päivitetty: Wed, 19.06.2024 18:50
Rain showers, Thunderstorm
Rain showers, Thunderstorm
 Tuulee suunnasta WNW
Tuuli: WNW 20 km/h
Lämpötila: 13°C
Kastepiste: 11°C
Kosteus: 88%
Paine: 1003 hPa
Olosuhteet: Rain Showers
Pilviä: Thunderstorm
Näkyvyys: 10 km
Pilven tiedot: Overcast 640 m
2024/06/19 16:50 EFSA 191650Z AUTO 29011KT 9999 SHRA OVC021 //////CB 13/11 Q1003
ESPE - Vidsel (swe-Afb), Sweden
Etäisyys meistä: Luoteeseen 316km
Päivitetty: Wed, 19.06.2024 18:50
Light rain, Showers, Mostly cloudy
Light rain, Showers, Mostly cloudy
 Tuulee suunnasta WNW
Tuuli: WNW 20 km/h
Lämpötila: 14°C
Kastepiste: 12°C
Kosteus: 88%
Paine: 998 hPa
Olosuhteet: Light rain, Showers
Pilviä: Mostly Cloudy
Näkyvyys: 10 km
Pilven tiedot: Few Clouds 1128 m
Mostly Cloudy 1951 m
2024/06/19 16:50 ESPE 191650Z AUTO 29011KT 9999 -SHRA FEW037/// BKN064/// 14/12 Q0998 RESHRA
 
EFTP - Tampere/Pirkkala, Finland
Etäisyys meistä: Etelälounaaseen 322km
Päivitetty: Wed, 19.06.2024 18:50
Few Clouds
Few Clouds
 Tuulee suunnasta W
Tuuli: W 26 km/h
Lämpötila: 16°C
Kastepiste: 9°C
Kosteus: 63%
Paine: 1002 hPa
Pilviä: Few Clouds
Näkyvyys: 10 km
Pilven tiedot: Few Clouds 884 m
2024/06/19 16:50 EFTP 191650Z AUTO 27014KT 9999 FEW029 16/09 Q1002
ESNL - Lycksele, Sweden
Etäisyys meistä: Länteen 331km
Päivitetty: Wed, 19.06.2024 18:50
Light rain, Mostly cloudy
Light rain, Mostly cloudy
 Tuulee suunnasta WNW
Tuuli: WNW 33 km/h, Puuska: 54 km/h
Lämpötila: 12°C
Kastepiste: 8°C
Kosteus: 77%
Paine: 1001 hPa
Olosuhteet: Light Rain
Pilviä: Mostly Cloudy
Näkyvyys: 10 km
Pilven tiedot: Few Clouds 610 m
Partly Cloudy 792 m
Mostly Cloudy 975 m
2024/06/19 16:50 ESNL 191650Z AUTO 30018G29KT 9999 -RA FEW020/// SCT026/// BKN032/// 12/08 Q1001

Metar display script from Saratoga-Weather.org